createdAt,value
2018-12-15T00:01:38.535Z,75.77
2018-12-15T00:04:11.040Z,77.59
2018-12-15T00:06:59.404Z,76.73
2018-12-15T00:09:29.967Z,76.56
2018-12-15T00:12:00.478Z,76.53
2018-12-15T00:14:31.101Z,76.25
2018-12-15T00:17:05.673Z,76.46
2018-12-15T00:19:34.315Z,77.18
2018-12-15T00:22:04.853Z,78.25
2018-12-15T00:24:35.349Z,77.93
2018-12-15T00:27:07.018Z,78.01
2018-12-15T00:29:37.501Z,78.17
2018-12-15T00:32:07.994Z,77.60
2018-12-15T00:34:38.511Z,76.61
2018-12-15T00:37:08.997Z,75.99
2018-12-15T00:39:39.885Z,77.27
2018-12-15T00:42:10.429Z,77.64
2018-12-15T00:44:40.905Z,78.02
2018-12-15T00:47:13.868Z,78.39
2018-12-15T00:49:44.247Z,76.92
2018-12-15T00:52:15.842Z,78.17
2018-12-15T00:54:46.320Z,78.59
2018-12-15T00:57:16.860Z,78.52
2018-12-15T00:59:47.449Z,78.85
2018-12-15T01:02:18.538Z,79.06
2018-12-15T01:04:49.131Z,77.81
2018-12-15T01:07:19.672Z,78.85
2018-12-15T01:09:50.126Z,78.27
2018-12-15T01:12:20.727Z,77.83
2018-12-15T01:14:51.226Z,78.61
2018-12-15T01:17:21.693Z,78.41
2018-12-15T01:19:52.375Z,77.95
2018-12-15T01:22:22.885Z,77.29
2018-12-15T01:24:54.578Z,77.10
2018-12-15T01:27:25.203Z,78.04
2018-12-15T01:29:55.749Z,77.50
2018-12-15T01:32:26.404Z,77.97
2018-12-15T01:34:56.938Z,77.69
2018-12-15T01:37:27.449Z,77.85
2018-12-15T01:39:57.937Z,77.91
2018-12-15T01:42:28.453Z,78.54
2018-12-15T01:44:59.070Z,77.08
2018-12-15T01:47:29.657Z,76.94
2018-12-15T01:50:00.194Z,78.25
2018-12-15T01:52:30.899Z,77.87
2018-12-15T01:55:01.418Z,78.02
2018-12-15T01:57:32.049Z,78.73
2018-12-15T02:00:02.555Z,78.51
2018-12-15T02:02:35.449Z,78.32
2018-12-15T02:05:06.233Z,77.91
2018-12-15T02:07:36.705Z,77.70
2018-12-15T02:10:08.018Z,78.77
2018-12-15T02:12:38.956Z,78.60
2018-12-15T02:15:09.472Z,79.64
2018-12-15T02:17:39.969Z,79.93
2018-12-15T02:20:10.590Z,78.91
2018-12-15T02:22:41.205Z,79.87
2018-12-15T02:25:11.769Z,79.43
2018-12-15T02:27:42.255Z,80.24
2018-12-15T02:30:12.760Z,79.68
2018-12-15T02:32:43.410Z,79.47
2018-12-15T02:35:13.861Z,79.71
2018-12-15T02:37:44.353Z,79.76
2018-12-15T02:40:14.827Z,79.79
2018-12-15T02:42:45.326Z,79.33
2018-12-15T02:45:15.856Z,78.46
2018-12-15T02:47:46.297Z,79.60
2018-12-15T02:50:16.794Z,79.46
2018-12-15T02:52:47.268Z,79.58
2018-12-15T02:55:17.734Z,78.91
2018-12-15T02:57:48.227Z,78.33
2018-12-15T03:00:18.721Z,78.43
2018-12-15T03:02:49.222Z,78.98
2018-12-15T03:05:19.817Z,78.40
2018-12-15T03:07:50.290Z,79.13
2018-12-15T03:10:20.772Z,78.79
2018-12-15T03:12:51.268Z,78.57
2018-12-15T03:15:21.791Z,77.89
2018-12-15T03:17:52.264Z,77.80
2018-12-15T03:20:22.825Z,78.09
2018-12-15T03:22:53.289Z,78.59
2018-12-15T03:25:23.764Z,80.05
2018-12-15T03:27:54.210Z,78.97
2018-12-15T03:30:24.692Z,79.53
2018-12-15T03:32:55.278Z,79.88
2018-12-15T03:35:25.751Z,80.33
2018-12-15T03:37:56.241Z,80.18
2018-12-15T03:40:26.698Z,80.78
2018-12-15T03:42:57.192Z,79.60
2018-12-15T03:45:29.714Z,79.90
2018-12-15T03:48:00.252Z,79.45
2018-12-15T03:50:30.749Z,80.07
2018-12-15T03:53:01.194Z,80.43
2018-12-15T03:55:31.670Z,79.17
2018-12-15T03:58:02.206Z,79.59
2018-12-15T04:00:32.690Z,79.47
2018-12-15T04:03:03.318Z,80.33
2018-12-15T04:05:33.814Z,80.15
2018-12-15T04:08:04.424Z,80.35
2018-12-15T04:10:35.178Z,80.18
2018-12-15T04:13:05.680Z,80.71
2018-12-15T04:15:36.311Z,79.63
2018-12-15T04:18:06.843Z,79.47
2018-12-15T04:20:37.302Z,79.70
2018-12-15T04:23:07.867Z,79.83
2018-12-15T04:25:38.965Z,80.52
2018-12-15T04:28:09.486Z,80.51
2018-12-15T04:30:39.947Z,80.50
2018-12-15T04:33:10.444Z,81.09
2018-12-15T04:35:40.925Z,80.40
2018-12-15T04:38:11.477Z,80.07
2018-12-15T04:40:42.114Z,81.66
2018-12-15T04:43:12.559Z,81.68
2018-12-15T04:45:43.043Z,80.17
2018-12-15T04:48:13.537Z,81.76
2018-12-15T04:50:44.005Z,81.54
2018-12-15T04:53:14.471Z,81.75
2018-12-15T04:55:45.035Z,80.90
2018-12-15T04:58:15.537Z,80.64
2018-12-15T05:00:46.135Z,81.12
2018-12-15T05:03:16.586Z,80.91
2018-12-15T05:05:47.158Z,82.63
2018-12-15T05:08:17.710Z,81.07
2018-12-15T05:10:48.193Z,82.07
2018-12-15T05:13:18.697Z,82.25
2018-12-15T05:15:49.137Z,82.14
2018-12-15T05:18:19.657Z,81.67
2018-12-15T05:20:50.158Z,82.21
2018-12-15T05:23:20.610Z,82.14
2018-12-15T05:25:51.086Z,81.98
2018-12-15T05:28:21.674Z,82.83
2018-12-15T05:30:52.143Z,82.54
2018-12-15T05:33:22.635Z,81.41
2018-12-15T05:35:53.127Z,81.29
2018-12-15T05:38:23.735Z,80.09
2018-12-15T05:40:54.183Z,80.08
2018-12-15T05:43:24.646Z,80.99
2018-12-15T05:45:55.102Z,81.39
2018-12-15T05:48:25.620Z,82.68
2018-12-15T05:50:56.215Z,80.68
2018-12-15T05:53:26.750Z,81.00
2018-12-15T05:55:57.298Z,81.85
2018-12-15T05:58:27.834Z,80.43
2018-12-15T06:00:58.321Z,81.27
2018-12-15T06:03:28.812Z,81.94
2018-12-15T06:05:59.282Z,81.21
2018-12-15T06:08:29.809Z,80.69
2018-12-15T06:11:00.434Z,81.38
2018-12-15T06:13:30.996Z,82.18
2018-12-15T06:16:01.745Z,82.14
2018-12-15T06:18:32.328Z,82.60
2018-12-15T06:21:02.815Z,82.00
2018-12-15T06:23:33.457Z,82.12
2018-12-15T06:26:04.289Z,81.68
2018-12-15T06:28:34.990Z,82.72
2018-12-15T06:31:05.554Z,83.64
2018-12-15T06:33:36.213Z,83.03
2018-12-15T06:36:06.860Z,82.56
2018-12-15T06:38:37.575Z,82.39
2018-12-15T06:41:08.297Z,82.18
2018-12-15T06:43:39.209Z,82.50
2018-12-15T06:46:09.926Z,82.57
2018-12-15T06:48:40.451Z,82.73
2018-12-15T06:51:11.086Z,81.85
2018-12-15T06:53:41.584Z,81.99
2018-12-15T06:56:12.106Z,81.65
2018-12-15T06:58:42.739Z,82.03
2018-12-15T07:01:13.263Z,82.42
2018-12-15T07:03:43.763Z,81.68
2018-12-15T07:06:14.447Z,81.55
2018-12-15T07:08:44.978Z,82.27
2018-12-15T07:11:15.506Z,81.15
2018-12-15T07:13:45.999Z,80.59
2018-12-15T07:16:16.618Z,79.89
2018-12-15T07:18:47.105Z,80.23
2018-12-15T07:21:17.691Z,79.83
2018-12-15T07:23:48.198Z,80.10
2018-12-15T07:26:19.548Z,80.47
2018-12-15T07:28:50.051Z,80.09
2018-12-15T07:31:20.577Z,80.35
2018-12-15T07:33:51.038Z,79.61
2018-12-15T07:36:22.586Z,80.37
2018-12-15T07:38:53.111Z,79.91
2018-12-15T07:41:23.670Z,80.40
2018-12-15T07:43:54.351Z,80.88
2018-12-15T07:46:24.862Z,80.46
2018-12-15T07:48:55.496Z,80.82
2018-12-15T07:51:26.080Z,79.40
2018-12-15T07:53:56.629Z,79.96
2018-12-15T07:56:27.533Z,79.39
2018-12-15T07:58:58.090Z,79.68
2018-12-15T08:01:28.635Z,79.60
2018-12-15T08:03:59.186Z,79.95
2018-12-15T08:06:29.737Z,79.99
2018-12-15T08:09:01.074Z,79.86
2018-12-15T08:11:38.858Z,80.07
2018-12-15T08:16:54.278Z,78.99
2018-12-15T08:19:24.958Z,79.39
2018-12-15T08:21:55.675Z,80.27
2018-12-15T08:24:26.271Z,79.71
2018-12-15T08:26:56.987Z,80.43
2018-12-15T08:29:30.899Z,80.00
2018-12-15T08:32:01.514Z,80.10
2018-12-15T08:34:32.079Z,79.81
2018-12-15T08:37:02.723Z,79.89
2018-12-15T08:39:33.907Z,79.61
2018-12-15T08:42:04.840Z,79.79
2018-12-15T08:44:36.782Z,81.72
2018-12-15T08:47:07.561Z,80.92
2018-12-15T08:49:38.292Z,80.78
2018-12-15T08:52:10.211Z,80.71
2018-12-15T08:54:41.393Z,80.33
2018-12-15T09:00:19.497Z,81.08
2018-12-15T09:02:52.681Z,83.17
2018-12-15T09:05:25.176Z,81.46
2018-12-15T09:08:04.560Z,80.36
2018-12-15T09:10:36.274Z,81.11
2018-12-15T09:13:07.863Z,80.74
2018-12-15T09:15:40.295Z,81.09
2018-12-15T09:18:12.910Z,81.30
2018-12-15T09:20:58.762Z,80.86
2018-12-15T09:23:32.428Z,80.42
2018-12-15T09:26:06.998Z,80.35
2018-12-15T09:28:44.235Z,79.84
2018-12-15T09:31:23.207Z,79.80
2018-12-15T09:33:59.848Z,80.66
2018-12-15T09:36:43.693Z,79.49
2018-12-15T09:39:14.430Z,79.62
2018-12-15T09:41:46.404Z,80.31
2018-12-15T09:44:39.088Z,79.49
2018-12-15T09:47:38.603Z,80.03
2018-12-15T09:50:39.113Z,80.35
2018-12-15T09:53:14.627Z,80.77
2018-12-15T09:55:45.319Z,79.63
2018-12-15T09:58:19.113Z,79.23
2018-12-15T10:00:56.260Z,79.58
2018-12-15T10:03:27.191Z,80.48
2018-12-15T10:05:57.966Z,80.27
2018-12-15T10:08:28.739Z,79.27
2018-12-15T10:10:59.703Z,79.52
2018-12-15T10:13:31.526Z,78.94
2018-12-15T10:16:02.600Z,77.90
2018-12-15T10:18:34.251Z,78.75
2018-12-15T10:21:04.779Z,77.82
2018-12-15T10:23:35.287Z,78.75
2018-12-15T10:26:05.934Z,78.77
2018-12-15T10:28:36.693Z,80.02
2018-12-15T10:31:12.591Z,78.91
2018-12-15T10:33:43.394Z,78.02
2018-12-15T10:36:14.291Z,78.56
2018-12-15T10:38:44.935Z,79.04
2018-12-15T10:41:15.572Z,77.87
2018-12-15T10:43:46.440Z,76.31
2018-12-15T10:46:17.184Z,75.95
2018-12-15T10:48:49.758Z,75.97
2018-12-15T10:51:20.798Z,77.80
2018-12-15T10:53:51.660Z,77.85
2018-12-15T10:56:22.435Z,77.70
2018-12-15T10:58:53.769Z,78.05
2018-12-15T11:01:26.470Z,78.58
2018-12-15T11:04:00.788Z,77.74
2018-12-15T11:06:30.080Z,77.02
2018-12-15T11:09:00.770Z,77.25
2018-12-15T11:11:33.730Z,76.78
2018-12-15T11:14:04.738Z,76.82
2018-12-15T11:16:35.420Z,76.39
2018-12-15T11:19:06.319Z,76.72
2018-12-15T11:21:37.866Z,76.26
2018-12-15T11:24:08.611Z,75.20
2018-12-15T11:26:39.226Z,75.55
2018-12-15T11:29:09.722Z,75.90
2018-12-15T11:31:40.397Z,75.15
2018-12-15T11:34:11.209Z,75.32
2018-12-15T11:36:42.044Z,76.02
2018-12-15T11:39:12.684Z,75.53
2018-12-15T11:41:43.332Z,75.75
2018-12-15T11:44:13.949Z,75.16
2018-12-15T11:46:44.623Z,74.80
2018-12-15T11:49:16.493Z,75.39
2018-12-15T11:51:47.182Z,74.21
2018-12-15T11:54:17.922Z,74.49
2018-12-15T11:56:48.477Z,75.12
2018-12-15T11:59:19.165Z,74.89
2018-12-15T12:01:50.750Z,74.98
2018-12-15T12:04:21.386Z,75.09
2018-12-15T12:06:51.903Z,75.66
2018-12-15T12:09:22.431Z,73.76
2018-12-15T12:11:53.033Z,74.53
2018-12-15T12:14:23.620Z,73.60
2018-12-15T12:16:54.289Z,73.17
2018-12-15T12:19:25.175Z,74.23
2018-12-15T12:21:57.366Z,74.07
2018-12-15T12:24:28.085Z,72.81
2018-12-15T12:27:00.753Z,73.60
2018-12-15T12:29:31.389Z,74.05
2018-12-15T12:32:02.924Z,73.51
2018-12-15T12:34:33.680Z,72.96
2018-12-15T12:37:04.231Z,74.26
2018-12-15T12:39:35.093Z,73.16
2018-12-15T12:42:05.917Z,73.75
2018-12-15T12:44:36.787Z,73.26
2018-12-15T12:47:07.471Z,73.11
2018-12-15T12:49:38.231Z,73.55
2018-12-15T12:52:10.051Z,73.90
2018-12-15T12:54:40.647Z,73.87
2018-12-15T12:57:13.967Z,73.80
2018-12-15T12:59:44.845Z,73.50
2018-12-15T13:02:16.119Z,73.35
2018-12-15T13:04:47.505Z,74.36
2018-12-15T13:07:18.104Z,73.83
2018-12-15T13:09:48.633Z,73.47
2018-12-15T13:12:19.209Z,73.31
2018-12-15T13:14:49.790Z,73.58
2018-12-15T13:17:20.392Z,74.69
2018-12-15T13:19:50.951Z,72.77
2018-12-15T13:22:21.572Z,72.61
2018-12-15T13:24:52.288Z,72.28
2018-12-15T13:27:23.032Z,73.83
2018-12-15T13:29:53.684Z,73.91
2018-12-15T13:32:24.315Z,74.02
2018-12-15T13:34:55.042Z,73.21
2018-12-15T13:37:25.923Z,73.46
2018-12-15T13:39:56.672Z,73.96
2018-12-15T13:42:27.398Z,73.23
2018-12-15T13:44:58.222Z,73.81
2018-12-15T13:47:29.913Z,73.41
2018-12-15T13:50:00.926Z,73.54
2018-12-15T13:52:32.262Z,73.72
2018-12-15T13:55:02.889Z,74.35
2018-12-15T13:57:33.613Z,74.18
2018-12-15T14:00:04.305Z,74.22
2018-12-15T14:02:36.101Z,74.98
2018-12-15T14:05:06.814Z,74.58
2018-12-15T14:07:37.471Z,74.51
2018-12-15T14:10:08.264Z,74.17
2018-12-15T14:12:40.113Z,73.92
2018-12-15T14:15:10.986Z,74.44
2018-12-15T14:17:43.819Z,74.36
2018-12-15T14:20:16.975Z,73.85
2018-12-15T14:22:47.628Z,74.65
2018-12-15T14:25:23.741Z,74.52
2018-12-15T14:27:56.748Z,73.76
2018-12-15T14:30:30.036Z,75.20
2018-12-15T14:33:00.881Z,74.84
2018-12-15T14:35:31.951Z,74.53
2018-12-15T14:38:09.564Z,74.53
2018-12-15T14:40:40.473Z,74.45
2018-12-15T14:43:11.105Z,74.53
2018-12-15T14:45:57.493Z,74.15
2018-12-15T14:48:28.358Z,74.64
2018-12-15T14:50:58.964Z,75.51
2018-12-15T14:53:29.649Z,75.67
2018-12-15T14:56:00.231Z,76.76
2018-12-15T14:58:30.833Z,76.24
2018-12-15T15:01:01.495Z,76.16
2018-12-15T15:03:33.635Z,75.59
2018-12-15T15:06:04.411Z,76.39
2018-12-15T15:08:35.142Z,75.44
2018-12-15T15:11:05.692Z,76.21
2018-12-15T15:13:36.266Z,76.16
2018-12-15T15:16:06.839Z,76.53
2018-12-15T15:18:37.544Z,76.35
2018-12-15T15:21:08.106Z,77.67
2018-12-15T15:23:38.659Z,77.20
2018-12-15T15:26:09.177Z,77.98
2018-12-15T15:28:39.707Z,78.44
2018-12-15T15:31:10.284Z,77.40
2018-12-15T15:33:41.186Z,77.23
2018-12-15T15:36:11.944Z,78.15
2018-12-15T15:38:42.726Z,77.01
2018-12-15T15:41:13.332Z,77.33
2018-12-15T15:43:44.046Z,77.12
2018-12-15T15:46:14.733Z,77.99
2018-12-15T15:48:45.400Z,77.11
2018-12-15T15:51:16.029Z,77.19
2018-12-15T15:53:46.585Z,77.47
2018-12-15T15:56:17.261Z,77.26
2018-12-15T15:58:47.819Z,78.16
2018-12-15T16:01:18.515Z,78.40
2018-12-15T16:03:49.178Z,78.19
2018-12-15T16:06:20.242Z,78.35
2018-12-15T16:08:50.820Z,77.83
2018-12-15T16:11:21.454Z,78.03
2018-12-15T16:13:58.176Z,77.49
2018-12-15T16:16:34.831Z,77.42
2018-12-15T16:19:05.483Z,77.70
2018-12-15T16:21:36.201Z,77.30
2018-12-15T16:24:06.809Z,78.16
2018-12-15T16:26:45.209Z,77.78
2018-12-15T16:29:22.935Z,77.56
2018-12-15T16:31:53.520Z,77.84
2018-12-15T16:34:24.416Z,78.43
2018-12-15T16:36:55.332Z,78.23
2018-12-15T16:39:31.293Z,78.77
2018-12-15T16:42:02.490Z,79.40
2018-12-15T16:44:38.531Z,79.31
2018-12-15T16:47:13.319Z,79.14
2018-12-15T16:49:44.089Z,79.04
2018-12-15T16:52:18.076Z,79.93
2018-12-15T16:54:50.712Z,78.53
2018-12-15T16:57:24.566Z,77.34
2018-12-15T16:59:56.674Z,78.44
2018-12-15T17:02:27.305Z,78.50
2018-12-15T17:04:58.167Z,78.24
2018-12-15T17:07:28.962Z,76.83
2018-12-15T17:10:01.335Z,77.34
2018-12-15T17:12:32.959Z,77.66
2018-12-15T17:15:06.551Z,76.62
2018-12-15T17:17:37.473Z,76.98
2018-12-15T17:20:09.784Z,77.40
2018-12-15T17:22:41.995Z,77.96
2018-12-15T17:25:13.778Z,76.77
2018-12-15T17:27:46.153Z,77.73
2018-12-15T17:30:21.696Z,77.75
2018-12-15T17:32:54.275Z,77.86
2018-12-15T17:35:33.823Z,76.69
2018-12-15T17:38:05.909Z,77.11
2018-12-15T17:40:36.789Z,77.12
2018-12-15T17:43:07.492Z,77.41
2018-12-15T17:45:40.167Z,77.64
2018-12-15T17:48:11.940Z,76.88
2018-12-15T17:50:42.847Z,76.30
2018-12-15T17:53:13.683Z,75.15
2018-12-15T17:55:44.483Z,74.30
2018-12-15T17:58:15.262Z,74.00
2018-12-15T18:00:45.974Z,74.03
2018-12-15T18:03:16.629Z,73.40
2018-12-15T18:05:47.389Z,73.06
2018-12-15T18:08:18.058Z,72.40
2018-12-15T18:10:48.852Z,71.59
2018-12-15T18:13:19.472Z,71.46
2018-12-15T18:15:50.141Z,72.70
2018-12-15T18:18:21.235Z,72.42
2018-12-15T18:20:51.840Z,73.47
2018-12-15T18:23:23.630Z,72.40
2018-12-15T18:25:54.400Z,73.43
2018-12-15T18:28:25.239Z,72.77
2018-12-15T18:30:56.111Z,72.15
2018-12-15T18:33:27.202Z,72.05
2018-12-15T18:35:58.604Z,71.82
2018-12-15T18:38:30.466Z,71.42
2018-12-15T18:41:02.529Z,72.02
2018-12-15T18:43:33.183Z,71.19
2018-12-15T18:46:05.265Z,70.12
2018-12-15T18:48:38.049Z,69.62
2018-12-15T18:51:08.662Z,70.31
2018-12-15T18:53:40.207Z,69.84
2018-12-15T18:56:10.871Z,69.57
2018-12-15T18:58:44.527Z,69.50
2018-12-15T19:01:16.113Z,69.75
2018-12-15T19:03:46.880Z,69.07
2018-12-15T19:06:20.155Z,69.18
2018-12-15T19:08:54.054Z,70.36
2018-12-15T19:11:26.735Z,70.47
2018-12-15T19:13:57.275Z,70.88
2018-12-15T19:16:27.857Z,69.35
2018-12-15T19:18:58.832Z,70.68
2018-12-15T19:21:29.751Z,70.91
2018-12-15T19:24:01.134Z,70.92
2018-12-15T19:26:33.982Z,71.16
2018-12-15T19:29:05.443Z,71.74
2018-12-15T19:31:36.189Z,71.52
2018-12-15T19:34:06.922Z,71.13
2018-12-15T19:36:37.725Z,71.33
2018-12-15T19:39:14.802Z,71.96
2018-12-15T19:41:45.955Z,71.41
2018-12-15T19:44:18.461Z,71.89
2018-12-15T19:47:05.504Z,72.88
2018-12-15T19:49:45.352Z,72.93
2018-12-15T19:52:18.828Z,73.41
2018-12-15T19:54:51.367Z,73.65
2018-12-15T19:57:22.322Z,74.70
2018-12-15T19:59:53.164Z,74.47
2018-12-15T20:02:24.335Z,74.47
2018-12-15T20:04:55.097Z,75.01
2018-12-15T20:07:26.041Z,75.99
2018-12-15T20:26:31.106Z,75.64
2018-12-15T20:29:05.262Z,74.88
2018-12-15T20:31:36.529Z,76.02
2018-12-15T20:34:07.038Z,74.76
2018-12-15T20:36:47.503Z,74.43
2018-12-15T20:39:23.477Z,75.84
2018-12-15T20:42:00.850Z,74.61
2018-12-15T20:44:31.698Z,75.33
2018-12-15T20:47:05.247Z,76.91
2018-12-15T20:49:43.902Z,76.00
2018-12-15T20:52:14.547Z,76.70
2018-12-15T20:54:45.159Z,77.29
2018-12-15T20:57:18.559Z,77.53
2018-12-15T20:59:51.007Z,76.08
2018-12-15T21:02:27.397Z,75.89
2018-12-15T21:05:06.628Z,77.32
2018-12-15T21:07:37.869Z,77.70
2018-12-15T21:10:08.891Z,77.45
2018-12-15T21:12:39.945Z,77.52
2018-12-15T21:15:19.754Z,77.71
2018-12-15T21:18:16.148Z,77.87
2018-12-15T21:20:54.926Z,78.27
2018-12-15T21:23:28.397Z,78.05
2018-12-15T21:25:59.872Z,78.16
2018-12-15T21:28:31.532Z,77.74
2018-12-15T21:31:02.106Z,78.05
2018-12-15T21:33:33.920Z,78.69
2018-12-15T21:36:04.600Z,77.71
2018-12-15T21:38:35.297Z,77.76
2018-12-15T21:41:05.890Z,78.09
2018-12-15T21:43:36.586Z,78.46
2018-12-15T21:46:07.214Z,78.39
2018-12-15T21:48:37.807Z,78.00
2018-12-15T21:51:08.553Z,78.72
2018-12-15T21:53:39.110Z,78.52
2018-12-15T21:56:10.571Z,78.24
2018-12-15T21:58:41.249Z,77.91
2018-12-15T22:01:11.850Z,78.45
2018-12-15T22:03:42.550Z,78.00
2018-12-15T22:06:13.307Z,78.08
2018-12-15T22:08:45.444Z,78.44
2018-12-15T22:11:16.110Z,78.58
2018-12-15T22:13:46.796Z,78.00
2018-12-15T22:16:17.403Z,78.31
2018-12-15T22:18:47.972Z,78.10
2018-12-15T22:21:19.012Z,78.82
2018-12-15T22:23:49.612Z,78.63
2018-12-15T22:26:20.216Z,78.11
2018-12-15T22:28:50.796Z,77.42
2018-12-15T22:31:21.392Z,76.26
2018-12-15T22:33:52.019Z,77.34
2018-12-15T22:36:22.759Z,76.65
2018-12-15T22:38:53.448Z,76.42
2018-12-15T22:41:24.104Z,77.31
2018-12-15T22:43:54.813Z,77.32
2018-12-15T22:46:25.577Z,77.96
2018-12-15T22:48:56.177Z,78.59
2018-12-15T22:51:26.866Z,77.50
2018-12-15T22:53:57.538Z,77.40
2018-12-15T22:56:28.084Z,77.69
2018-12-15T22:58:58.751Z,78.85
2018-12-15T23:01:31.588Z,77.97
2018-12-15T23:04:04.709Z,78.06
2018-12-15T23:06:35.337Z,77.30
2018-12-15T23:09:08.195Z,76.97
2018-12-15T23:11:40.926Z,77.48
2018-12-15T23:14:11.510Z,76.13
2018-12-15T23:20:46.883Z,77.01
2018-12-15T23:23:17.449Z,76.82
2018-12-15T23:25:48.048Z,77.33
2018-12-15T23:28:18.635Z,77.54
2018-12-15T23:30:49.242Z,77.18
2018-12-15T23:33:19.803Z,77.08
2018-12-15T23:35:50.352Z,77.41
2018-12-15T23:38:20.929Z,77.97
2018-12-15T23:40:51.491Z,78.34
2018-12-15T23:43:22.865Z,77.96
2018-12-15T23:45:54.459Z,78.00
2018-12-15T23:48:25.073Z,77.86
2018-12-15T23:50:55.687Z,78.04
2018-12-15T23:53:26.290Z,77.89
2018-12-15T23:55:56.906Z,78.06
2018-12-15T23:58:27.474Z,78.41
